createdAt,value
2018-01-15T00:00:38.941Z,76.86
2018-01-15T00:03:07.283Z,77.01
2018-01-15T00:05:35.748Z,77.06
2018-01-15T00:08:04.167Z,77.33
2018-01-15T00:10:32.554Z,77.55
2018-01-15T00:13:00.862Z,77.39
2018-01-15T00:15:29.180Z,77.13
2018-01-15T00:17:57.588Z,76.55
2018-01-15T00:20:25.933Z,76.83
2018-01-15T00:22:54.260Z,76.71
2018-01-15T00:25:22.582Z,76.47
2018-01-15T00:27:51.689Z,75.96
2018-01-15T00:30:20.028Z,76.83
2018-01-15T00:32:48.424Z,76.74
2018-01-15T00:35:17.543Z,76.73
2018-01-15T00:37:45.907Z,77.69
2018-01-15T00:40:15.286Z,77.14
2018-01-15T00:42:43.916Z,76.74
2018-01-15T00:45:12.245Z,76.64
2018-01-15T00:47:40.602Z,77.16
2018-01-15T00:50:09.482Z,76.33
2018-01-15T00:52:37.941Z,77.71
2018-01-15T00:55:06.326Z,77.75
2018-01-15T00:57:34.642Z,77.38
2018-01-15T01:00:02.974Z,77.19
2018-01-15T01:02:32.206Z,77.53
2018-01-15T01:05:00.558Z,77.31
2018-01-15T01:07:28.903Z,77.61
2018-01-15T01:09:57.240Z,77.53
2018-01-15T01:12:25.551Z,77.55
2018-01-15T01:14:53.929Z,77.85
2018-01-15T01:17:22.294Z,78.21
2018-01-15T01:19:50.649Z,77.34
2018-01-15T01:22:18.961Z,77.66
2018-01-15T01:24:47.834Z,78.01
2018-01-15T01:27:16.126Z,78.17
2018-01-15T01:29:44.465Z,78.36
2018-01-15T01:32:12.961Z,78.32
2018-01-15T01:34:41.260Z,77.92
2018-01-15T01:37:09.571Z,77.60
2018-01-15T01:42:12.398Z,78.43
2018-01-15T01:44:40.827Z,77.95
2018-01-15T01:47:09.135Z,77.95
2018-01-15T01:49:38.247Z,77.45
2018-01-15T01:52:06.598Z,77.93
2018-01-15T01:54:34.950Z,77.63
2018-01-15T01:57:03.272Z,77.41
2018-01-15T01:59:32.382Z,76.71
2018-01-15T02:02:00.684Z,77.30
2018-01-15T02:04:28.993Z,77.82
2018-01-15T02:06:57.652Z,77.41
2018-01-15T02:09:26.723Z,77.92
2018-01-15T02:11:55.048Z,77.79
2018-01-15T02:14:23.408Z,77.74
2018-01-15T02:16:51.749Z,78.04
2018-01-15T02:19:20.059Z,77.66
2018-01-15T02:21:48.444Z,78.15
2018-01-15T02:24:17.561Z,77.91
2018-01-15T02:26:45.871Z,77.96
2018-01-15T02:29:14.858Z,77.95
2018-01-15T02:31:43.968Z,77.13
2018-01-15T02:34:12.296Z,76.86
2018-01-15T02:36:40.648Z,77.28
2018-01-15T02:39:08.970Z,77.31
2018-01-15T02:41:37.294Z,77.96
2018-01-15T02:44:05.633Z,77.91
2018-01-15T02:46:33.965Z,77.75
2018-01-15T02:49:02.304Z,78.05
2018-01-15T02:51:30.861Z,78.02
2018-01-15T02:53:59.205Z,77.87
2018-01-15T02:56:27.623Z,78.22
2018-01-15T02:58:55.981Z,77.64
2018-01-15T03:01:24.375Z,77.57
2018-01-15T03:03:52.864Z,77.38
2018-01-15T03:06:21.205Z,77.15
2018-01-15T03:08:49.526Z,77.68
2018-01-15T03:11:17.897Z,76.88
2018-01-15T03:13:46.857Z,76.48
2018-01-15T03:16:15.197Z,76.73
2018-01-15T03:18:44.267Z,77.24
2018-01-15T03:21:12.755Z,77.87
2018-01-15T03:23:41.232Z,78.42
2018-01-15T03:26:09.575Z,78.35
2018-01-15T03:28:37.974Z,77.78
2018-01-15T03:31:06.472Z,77.90
2018-01-15T03:33:34.952Z,78.20
2018-01-15T03:36:03.368Z,78.32
2018-01-15T03:38:32.530Z,77.67
2018-01-15T03:41:00.910Z,78.09
2018-01-15T03:43:29.392Z,78.15
2018-01-15T03:45:57.814Z,78.10
2018-01-15T03:48:26.152Z,77.97
2018-01-15T03:50:54.582Z,77.90
2018-01-15T03:53:22.941Z,77.88
2018-01-15T03:55:52.109Z,77.24
2018-01-15T03:58:21.205Z,78.10
2018-01-15T04:00:49.588Z,78.05
2018-01-15T04:03:17.968Z,77.71
2018-01-15T04:05:46.445Z,77.07
2018-01-15T04:08:14.764Z,77.01
2018-01-15T04:10:43.079Z,76.77
2018-01-15T04:13:12.198Z,76.97
2018-01-15T04:15:40.679Z,77.35
2018-01-15T04:18:09.061Z,76.80
2018-01-15T04:20:38.287Z,76.68
2018-01-15T04:23:07.434Z,76.27
2018-01-15T04:25:35.917Z,76.68
2018-01-15T04:28:04.322Z,77.22
2018-01-15T04:30:32.671Z,77.43
2018-01-15T04:33:01.177Z,77.29
2018-01-15T04:35:29.556Z,77.98
2018-01-15T04:37:57.938Z,77.51
2018-01-15T04:40:26.244Z,77.23
2018-01-15T04:42:55.313Z,77.94
2018-01-15T04:45:23.752Z,76.89
2018-01-15T04:47:52.062Z,76.70
2018-01-15T04:50:20.563Z,77.31
2018-01-15T04:52:48.873Z,77.20
2018-01-15T04:55:17.169Z,77.02
2018-01-15T04:57:45.496Z,77.44
2018-01-15T05:00:13.865Z,77.43
2018-01-15T05:02:42.259Z,77.71
2018-01-15T05:05:11.444Z,78.07
2018-01-15T05:07:40.742Z,78.73
2018-01-15T05:10:09.224Z,77.92
2018-01-15T05:12:37.708Z,77.98
2018-01-15T05:15:06.196Z,78.16
2018-01-15T05:17:34.637Z,77.80
2018-01-15T05:20:03.058Z,77.37
2018-01-15T05:22:31.475Z,78.15
2018-01-15T05:24:59.807Z,77.94
2018-01-15T05:27:28.697Z,77.28
2018-01-15T05:29:56.994Z,77.07
2018-01-15T05:32:25.359Z,77.19
2018-01-15T05:34:53.772Z,76.87
2018-01-15T05:37:23.036Z,76.38
2018-01-15T05:39:51.444Z,77.10
2018-01-15T05:42:19.821Z,77.41
2018-01-15T05:44:48.909Z,77.03
2018-01-15T05:47:18.030Z,76.62
2018-01-15T05:49:46.951Z,76.24
2018-01-15T05:52:15.363Z,77.04
2018-01-15T05:54:43.710Z,77.44
2018-01-15T05:57:12.187Z,77.93
2018-01-15T05:59:40.501Z,77.37
2018-01-15T06:02:08.884Z,77.34
2018-01-15T06:04:37.284Z,77.02
2018-01-15T06:07:06.419Z,77.17
2018-01-15T06:09:34.732Z,77.56
2018-01-15T06:12:03.507Z,77.13
2018-01-15T06:14:31.893Z,77.18
2018-01-15T06:17:00.226Z,76.67
2018-01-15T06:19:28.567Z,76.05
2018-01-15T06:21:56.915Z,75.42
2018-01-15T06:24:25.249Z,75.67
2018-01-15T06:26:54.487Z,75.65
2018-01-15T06:29:22.973Z,75.83
2018-01-15T06:31:51.481Z,75.51
2018-01-15T06:34:20.103Z,75.14
2018-01-15T06:36:48.461Z,75.67
2018-01-15T06:39:17.575Z,76.17
2018-01-15T06:41:46.683Z,76.38
2018-01-15T06:44:15.220Z,75.95
2018-01-15T06:46:43.615Z,75.93
2018-01-15T06:49:12.708Z,76.09
2018-01-15T06:51:41.038Z,76.58
2018-01-15T06:54:09.346Z,76.14
2018-01-15T06:56:37.739Z,75.96
2018-01-15T06:59:06.052Z,75.83
2018-01-15T07:01:34.414Z,76.46
2018-01-15T07:04:02.783Z,75.71
2018-01-15T07:06:31.887Z,75.92
2018-01-15T07:09:00.986Z,76.09
2018-01-15T07:11:30.117Z,75.57
2018-01-15T07:13:58.430Z,75.06
2018-01-15T07:16:26.789Z,75.18
2018-01-15T07:18:55.498Z,75.55
2018-01-15T07:21:23.849Z,75.77
2018-01-15T07:23:52.168Z,74.97
2018-01-15T07:26:21.282Z,75.51
2018-01-15T07:28:50.387Z,75.23
2018-01-15T07:31:18.695Z,75.41
2018-01-15T07:33:47.906Z,74.74
2018-01-15T07:36:16.209Z,75.60
2018-01-15T07:38:44.566Z,75.28
2018-01-15T07:41:13.226Z,74.99
2018-01-15T07:43:41.558Z,74.29
2018-01-15T07:46:09.896Z,74.35
2018-01-15T07:48:38.217Z,73.79
2018-01-15T07:51:06.523Z,73.16
2018-01-15T07:53:34.863Z,72.36
2018-01-15T07:56:03.990Z,71.75
2018-01-15T07:58:33.085Z,70.69
2018-01-15T08:01:02.153Z,70.11
2018-01-15T08:03:30.900Z,70.38
2018-01-15T08:05:59.231Z,71.13
2018-01-15T08:08:27.555Z,71.95
2018-01-15T08:10:55.963Z,72.47
2018-01-15T08:13:24.315Z,72.50
2018-01-15T08:15:52.621Z,71.57
2018-01-15T08:18:20.978Z,71.06
2018-01-15T08:20:49.332Z,71.49
2018-01-15T08:23:17.683Z,70.94
2018-01-15T08:25:47.279Z,70.02
2018-01-15T08:28:15.592Z,70.01
2018-01-15T08:30:43.901Z,69.48
2018-01-15T08:33:12.253Z,68.85
2018-01-15T08:35:40.547Z,68.56
2018-01-15T08:38:08.840Z,68.45
2018-01-15T08:40:37.169Z,69.37
2018-01-15T08:43:05.493Z,69.09
2018-01-15T08:45:33.846Z,68.94
2018-01-15T08:48:02.599Z,67.97
2018-01-15T08:50:30.947Z,68.09
2018-01-15T08:52:59.244Z,68.31
2018-01-15T08:55:27.590Z,68.44
2018-01-15T08:57:55.896Z,68.76
2018-01-15T09:00:24.216Z,69.31
2018-01-15T09:02:52.593Z,69.89
2018-01-15T09:05:21.680Z,69.42
2018-01-15T09:07:50.816Z,69.00
2018-01-15T09:10:19.443Z,69.16
2018-01-15T09:12:47.752Z,68.73
2018-01-15T09:15:16.061Z,68.83
2018-01-15T09:17:44.435Z,68.61
2018-01-15T09:20:12.764Z,68.25
2018-01-15T09:22:41.092Z,67.62
2018-01-15T09:25:09.442Z,67.44
2018-01-15T09:27:37.780Z,67.81
2018-01-15T09:30:06.089Z,68.87
2018-01-15T09:32:35.682Z,69.26
2018-01-15T09:35:03.976Z,69.35
2018-01-15T09:37:32.304Z,68.51
2018-01-15T09:40:00.650Z,68.66
2018-01-15T09:42:28.976Z,69.62
2018-01-15T09:44:57.303Z,69.74
2018-01-15T09:47:25.652Z,70.03
2018-01-15T09:49:54.764Z,68.91
2018-01-15T09:52:23.828Z,68.76
2018-01-15T09:54:52.427Z,68.76
2018-01-15T09:57:20.722Z,68.10
2018-01-15T09:59:49.035Z,67.24
2018-01-15T10:02:17.386Z,66.34
2018-01-15T10:04:45.716Z,67.06
2018-01-15T10:07:14.060Z,66.52
2018-01-15T10:09:42.394Z,67.50
2018-01-15T10:12:10.706Z,66.45
2018-01-15T10:14:39.799Z,66.43
2018-01-15T10:17:08.341Z,62.57
2018-01-15T10:19:36.685Z,61.04
2018-01-15T10:22:05.004Z,59.85
2018-01-15T10:24:33.386Z,57.50
2018-01-15T10:27:01.711Z,55.80
2018-01-15T10:29:30.006Z,56.57
2018-01-15T10:31:58.368Z,58.25
2018-01-15T10:34:26.709Z,59.18
2018-01-15T10:36:55.044Z,59.72
2018-01-15T10:39:23.684Z,61.88
2018-01-15T10:41:52.072Z,63.01
2018-01-15T10:44:20.404Z,63.72
2018-01-15T10:46:48.772Z,64.22
2018-01-15T10:49:17.079Z,65.24
2018-01-15T10:51:45.416Z,65.78
2018-01-15T10:54:13.784Z,64.40
2018-01-15T10:56:42.112Z,64.38
2018-01-15T10:59:10.443Z,63.92
2018-01-15T11:01:39.202Z,63.48
2018-01-15T11:04:07.517Z,63.23
2018-01-15T11:06:35.890Z,63.56
2018-01-15T11:09:04.252Z,63.61
2018-01-15T11:11:32.662Z,63.72
2018-01-15T11:14:00.948Z,63.42
2018-01-15T11:16:29.310Z,63.49
2018-01-15T11:18:57.709Z,64.41
2018-01-15T11:21:26.052Z,64.15
2018-01-15T11:23:54.576Z,64.19
2018-01-15T11:26:22.884Z,64.53
2018-01-15T11:28:51.967Z,64.31
2018-01-15T11:31:20.313Z,63.47
2018-01-15T11:33:48.637Z,62.72
2018-01-15T11:36:16.962Z,63.67
2018-01-15T11:38:45.348Z,64.21
2018-01-15T11:41:13.668Z,63.41
2018-01-15T11:43:41.994Z,62.79
2018-01-15T11:46:10.418Z,62.98
2018-01-15T11:48:38.739Z,63.00
2018-01-15T11:51:07.044Z,62.42
2018-01-15T11:53:35.381Z,62.35
2018-01-15T11:56:04.531Z,61.92
2018-01-15T11:58:32.896Z,62.21
2018-01-15T12:01:01.230Z,62.91
2018-01-15T12:03:29.576Z,63.13
2018-01-15T12:05:57.926Z,63.27
2018-01-15T12:08:26.779Z,63.20
2018-01-15T12:10:55.872Z,62.56
2018-01-15T12:13:24.974Z,63.30
2018-01-15T12:15:53.305Z,62.84
2018-01-15T12:18:21.633Z,63.16
2018-01-15T12:20:49.985Z,63.68
2018-01-15T12:23:19.144Z,62.60
2018-01-15T12:25:47.470Z,61.90
2018-01-15T12:28:16.561Z,61.34
2018-01-15T12:30:46.191Z,61.86
2018-01-15T12:33:14.548Z,60.78
2018-01-15T12:35:42.895Z,60.55
2018-01-15T12:38:12.196Z,61.53
2018-01-15T12:40:40.520Z,60.41
2018-01-15T12:43:08.828Z,59.83
2018-01-15T12:45:37.158Z,57.05
2018-01-15T12:48:06.285Z,54.92
2018-01-15T12:50:34.617Z,51.60
2018-01-15T12:53:03.392Z,50.52
2018-01-15T12:55:32.077Z,51.68
2018-01-15T12:58:01.224Z,51.45
2018-01-15T13:00:29.630Z,53.78
2018-01-15T13:02:58.002Z,56.87
2018-01-15T13:05:44.026Z,58.21
2018-01-15T13:08:18.180Z,58.40
2018-01-15T13:10:46.897Z,60.27
2018-01-15T13:13:15.231Z,62.28
2018-01-15T13:15:43.550Z,62.94
2018-01-15T13:18:11.911Z,62.40
2018-01-15T13:20:40.269Z,63.19
2018-01-15T13:23:08.630Z,63.52
2018-01-15T13:25:36.990Z,63.19
2018-01-15T13:28:05.348Z,64.12
2018-01-15T13:30:33.657Z,63.24
2018-01-15T13:33:02.497Z,63.39
2018-01-15T13:35:31.565Z,64.00
2018-01-15T13:37:59.884Z,64.15
2018-01-15T13:40:28.289Z,64.58
2018-01-15T13:42:56.594Z,63.83
2018-01-15T13:45:24.919Z,64.50
2018-01-15T13:47:53.262Z,65.34
2018-01-15T13:50:22.393Z,64.80
2018-01-15T13:52:50.905Z,64.53
2018-01-15T13:55:19.401Z,64.13
2018-01-15T13:57:47.757Z,64.10
2018-01-15T14:00:16.080Z,64.96
2018-01-15T14:02:44.443Z,65.13
2018-01-15T14:05:12.770Z,65.43
2018-01-15T14:07:41.104Z,65.20
2018-01-15T14:10:09.465Z,64.90
2018-01-15T14:12:37.800Z,65.84
2018-01-15T14:15:06.931Z,66.00
2018-01-15T14:17:35.881Z,66.14
2018-01-15T14:20:04.961Z,65.64
2018-01-15T14:22:33.312Z,66.00
2018-01-15T14:25:01.676Z,65.86
2018-01-15T14:27:30.050Z,66.71
2018-01-15T14:29:58.433Z,66.72
2018-01-15T14:32:26.784Z,66.34
2018-01-15T14:34:55.118Z,67.14
2018-01-15T14:37:23.437Z,66.72
2018-01-15T14:39:52.708Z,66.34
2018-01-15T14:42:21.109Z,66.49
2018-01-15T14:44:50.211Z,66.74
2018-01-15T14:47:18.601Z,66.89
2018-01-15T14:49:47.781Z,66.77
2018-01-15T14:52:16.188Z,66.79
2018-01-15T14:54:44.543Z,67.35
2018-01-15T14:57:12.861Z,67.33
2018-01-15T14:59:41.175Z,67.15
2018-01-15T15:02:09.908Z,68.63
2018-01-15T15:04:38.236Z,68.27
2018-01-15T15:07:06.555Z,68.61
2018-01-15T15:09:34.940Z,68.66
2018-01-15T15:12:03.275Z,68.77
2018-01-15T15:14:31.564Z,68.52
2018-01-15T15:17:00.731Z,68.49
2018-01-15T15:19:29.052Z,68.84
2018-01-15T15:21:58.146Z,69.39
2018-01-15T15:24:27.973Z,69.17
2018-01-15T15:26:56.302Z,69.64
2018-01-15T15:29:24.674Z,69.53
2018-01-15T15:31:53.124Z,69.26
2018-01-15T15:34:21.464Z,69.82
2018-01-15T15:36:49.792Z,70.13
2018-01-15T15:39:18.113Z,69.84
2018-01-15T15:41:46.396Z,70.00
2018-01-15T15:44:14.723Z,69.74
2018-01-15T15:46:43.178Z,70.14
2018-01-15T15:49:12.247Z,69.92
2018-01-15T15:51:41.343Z,70.40
2018-01-15T15:54:09.715Z,70.63
2018-01-15T15:56:38.060Z,70.55
2018-01-15T15:59:06.376Z,70.44
2018-01-15T16:01:34.760Z,69.77
2018-01-15T16:04:03.087Z,70.15
2018-01-15T16:06:31.420Z,70.76
2018-01-15T16:08:59.856Z,70.58
2018-01-15T16:11:28.180Z,70.02
2018-01-15T16:13:57.274Z,70.62
2018-01-15T16:16:26.364Z,70.22
2018-01-15T16:18:54.670Z,69.70
2018-01-15T16:21:23.771Z,70.96
2018-01-15T16:23:52.117Z,70.52
2018-01-15T16:26:20.468Z,70.78
2018-01-15T16:28:48.797Z,70.93
2018-01-15T16:31:18.414Z,71.38
2018-01-15T16:33:46.740Z,71.92
2018-01-15T16:36:15.117Z,72.98
2018-01-15T16:38:43.447Z,72.95
2018-01-15T16:41:11.781Z,72.90
2018-01-15T16:43:40.077Z,73.09
2018-01-15T16:46:08.436Z,73.90
2018-01-15T16:48:36.797Z,73.83
2018-01-15T16:51:05.101Z,73.95
2018-01-15T16:53:33.726Z,74.51
2018-01-15T16:56:02.858Z,74.68
2018-01-15T16:58:31.157Z,75.15
2018-01-15T17:01:00.350Z,75.70
2018-01-15T17:03:28.671Z,75.85
2018-01-15T17:05:56.965Z,75.90
2018-01-15T17:08:25.336Z,75.48
2018-01-15T17:10:53.639Z,75.42
2018-01-15T17:13:22.000Z,75.97
2018-01-15T17:15:50.633Z,75.85
2018-01-15T17:18:18.952Z,75.86
2018-01-15T17:20:47.262Z,76.64
2018-01-15T17:23:15.581Z,76.74
2018-01-15T17:25:43.950Z,77.50
2018-01-15T17:28:12.274Z,77.04
2018-01-15T17:30:41.071Z,77.22
2018-01-15T17:33:09.389Z,76.83
2018-01-15T17:35:37.733Z,77.01
2018-01-15T17:38:06.303Z,76.27
2018-01-15T17:40:34.628Z,76.99
2018-01-15T17:43:02.987Z,76.73
2018-01-15T17:45:31.328Z,77.13
2018-01-15T17:48:00.449Z,77.58
2018-01-15T17:50:28.759Z,76.78
2018-01-15T17:52:57.146Z,76.92
2018-01-15T17:55:25.504Z,77.39
2018-01-15T17:57:53.835Z,77.40
2018-01-15T18:00:23.333Z,77.01
2018-01-15T18:02:51.675Z,77.06
2018-01-15T18:05:19.977Z,77.44
2018-01-15T18:07:48.329Z,76.84
2018-01-15T18:10:16.666Z,77.27
2018-01-15T18:12:44.983Z,77.32
2018-01-15T18:15:13.377Z,77.69
2018-01-15T18:17:41.693Z,77.12
2018-01-15T18:20:10.024Z,77.32
2018-01-15T18:22:38.498Z,77.55
2018-01-15T18:25:06.797Z,76.08
2018-01-15T18:27:35.111Z,76.53
2018-01-15T18:30:04.209Z,76.47
2018-01-15T18:32:33.256Z,76.48
2018-01-15T18:35:01.572Z,78.00
2018-01-15T18:37:30.662Z,78.28
2018-01-15T18:39:59.716Z,78.36
2018-01-15T18:42:28.044Z,78.42
2018-01-15T18:44:57.229Z,78.37
2018-01-15T18:47:25.546Z,78.67
2018-01-15T18:49:53.871Z,78.23
2018-01-15T18:52:22.195Z,78.69
2018-01-15T18:54:50.558Z,78.83
2018-01-15T18:57:18.867Z,78.07
2018-01-15T18:59:47.201Z,78.07
2018-01-15T19:02:16.288Z,77.82
2018-01-15T19:04:44.590Z,77.93
2018-01-15T19:07:14.085Z,77.57
2018-01-15T19:09:43.151Z,77.92
2018-01-15T19:12:11.468Z,77.38
2018-01-15T19:14:40.625Z,77.73
2018-01-15T19:17:08.977Z,78.51
2018-01-15T19:19:37.294Z,78.39
2018-01-15T19:22:05.626Z,78.78
2018-01-15T19:24:33.942Z,78.55
2018-01-15T19:27:02.237Z,78.23
2018-01-15T19:29:31.041Z,77.98
2018-01-15T19:32:00.123Z,78.04
2018-01-15T19:34:30.874Z,78.01
2018-01-15T19:37:00.013Z,77.85
2018-01-15T19:39:28.349Z,78.46
2018-01-15T19:41:56.683Z,78.45
2018-01-15T19:47:40.631Z,78.61
2018-01-15T19:50:14.376Z,78.17
2018-01-15T19:52:48.152Z,78.53
2018-01-15T19:55:22.026Z,78.85
2018-01-15T19:57:55.848Z,79.09
2018-01-15T20:00:29.759Z,79.84
2018-01-15T20:03:03.609Z,80.38
2018-01-15T20:05:37.375Z,80.24
2018-01-15T20:08:11.201Z,80.86
2018-01-15T20:10:44.496Z,80.50
2018-01-15T20:13:12.813Z,81.34
2018-01-15T20:15:41.152Z,81.43
2018-01-15T20:18:10.584Z,81.45
2018-01-15T20:20:38.914Z,81.50
2018-01-15T20:23:07.237Z,81.62
2018-01-15T20:25:35.612Z,81.94
2018-01-15T20:28:03.962Z,81.68
2018-01-15T20:30:32.291Z,81.73
2018-01-15T20:33:01.430Z,82.20
2018-01-15T20:35:29.758Z,82.34
2018-01-15T20:37:58.123Z,82.68
2018-01-15T20:40:26.734Z,82.07
2018-01-15T20:42:55.845Z,83.13
2018-01-15T20:45:24.160Z,82.75
2018-01-15T20:47:52.533Z,82.75
2018-01-15T20:50:21.068Z,82.66
2018-01-15T20:52:49.437Z,82.79
2018-01-15T20:55:18.565Z,83.85
2018-01-15T20:57:46.947Z,83.60
2018-01-15T21:00:15.309Z,83.83
2018-01-15T21:02:44.834Z,83.79
2018-01-15T21:05:13.177Z,83.91
2018-01-15T21:07:42.269Z,84.62
2018-01-15T21:10:10.642Z,84.78
2018-01-15T21:12:38.975Z,84.47
2018-01-15T21:15:07.300Z,84.82
2018-01-15T21:17:35.640Z,84.71
2018-01-15T21:20:03.965Z,84.78
2018-01-15T21:22:32.295Z,84.47
2018-01-15T21:25:00.749Z,85.28
2018-01-15T21:27:29.818Z,85.27
2018-01-15T21:29:58.127Z,84.98
2018-01-15T21:32:26.486Z,85.01
2018-01-15T21:34:54.809Z,84.69
2018-01-15T21:37:23.133Z,84.77
2018-01-15T21:39:51.461Z,84.71
2018-01-15T21:42:19.788Z,84.83
2018-01-15T21:44:48.108Z,84.52
2018-01-15T21:47:16.619Z,84.82
2018-01-15T21:49:44.961Z,85.50
2018-01-15T21:52:13.328Z,85.47
2018-01-15T21:54:41.698Z,84.89
2018-01-15T21:57:10.778Z,85.08
2018-01-15T21:59:39.073Z,84.86
2018-01-15T22:02:08.164Z,84.89
2018-01-15T22:04:37.292Z,85.08
2018-01-15T22:07:05.621Z,85.67
2018-01-15T22:09:34.178Z,86.12
2018-01-15T22:12:02.528Z,86.09
2018-01-15T22:14:30.876Z,85.29
2018-01-15T22:16:59.216Z,85.49
2018-01-15T22:19:27.517Z,85.40
2018-01-15T22:21:55.885Z,85.90
2018-01-15T22:24:24.274Z,85.84
2018-01-15T22:26:52.632Z,85.80
2018-01-15T22:29:20.964Z,85.53
2018-01-15T22:31:50.195Z,85.73
2018-01-15T22:34:18.533Z,86.24
2018-01-15T22:36:46.884Z,87.16
2018-01-15T22:39:15.218Z,86.91
2018-01-15T22:41:43.590Z,86.78
2018-01-15T22:44:11.914Z,86.51
2018-01-15T22:46:40.254Z,86.27
2018-01-15T22:49:08.676Z,86.25
2018-01-15T22:51:36.968Z,86.00
2018-01-15T22:54:05.389Z,86.27
2018-01-15T22:56:33.684Z,86.08
2018-01-15T22:59:01.987Z,85.99
2018-01-15T23:01:30.337Z,87.06
2018-01-15T23:03:58.632Z,86.88
2018-01-15T23:06:26.963Z,87.22
2018-01-15T23:08:55.327Z,87.11
2018-01-15T23:11:24.396Z,86.98
2018-01-15T23:13:52.699Z,86.70
2018-01-15T23:16:22.125Z,86.44
2018-01-15T23:18:50.447Z,86.55
2018-01-15T23:21:18.780Z,87.00
2018-01-15T23:23:47.137Z,87.09
2018-01-15T23:26:15.563Z,87.06
2018-01-15T23:28:43.942Z,86.94
2018-01-15T23:31:12.312Z,86.95
2018-01-15T23:33:40.636Z,87.06
2018-01-15T23:36:08.949Z,86.95
2018-01-15T23:38:37.388Z,87.58
2018-01-15T23:41:05.711Z,87.35
2018-01-15T23:43:34.781Z,87.10
2018-01-15T23:46:03.281Z,86.86
2018-01-15T23:48:31.632Z,87.09
2018-01-15T23:50:59.934Z,87.12
2018-01-15T23:53:29.055Z,88.02
2018-01-15T23:55:57.415Z,87.88
2018-01-15T23:58:25.735Z,87.86
